createdAt,value
2022-08-22T00:02:02.975Z,23.62
2022-08-22T00:02:43.870Z,24.61
2022-08-22T00:04:59.667Z,23.79
2022-08-22T00:07:53.079Z,23.57
2022-08-22T00:10:31.411Z,23.71
2022-08-22T00:13:07.594Z,23.71
2022-08-22T00:15:42.885Z,23.68
2022-08-22T00:18:36.727Z,23.60
2022-08-22T00:21:37.840Z,23.62
2022-08-22T00:24:19.779Z,23.63
2022-08-22T00:26:59.066Z,23.52
2022-08-22T00:29:34.972Z,23.53
2022-08-22T00:32:15.716Z,23.58
2022-08-22T00:35:07.369Z,23.37
2022-08-22T00:37:59.789Z,23.45
2022-08-22T00:40:53.540Z,23.46
2022-08-22T00:43:41.669Z,23.46
2022-08-22T00:46:28.884Z,23.17
2022-08-22T00:49:04.534Z,23.48
2022-08-22T00:51:56.160Z,23.20
2022-08-22T00:54:34.082Z,23.34
2022-08-22T00:57:24.112Z,22.95
2022-08-22T01:00:14.075Z,23.35
2022-08-22T01:02:51.842Z,23.28
2022-08-22T01:05:37.072Z,23.27
2022-08-22T01:08:22.218Z,23.28
2022-08-22T01:11:01.238Z,23.25
2022-08-22T01:14:18.851Z,23.15
2022-08-22T01:17:19.594Z,23.11
2022-08-22T01:20:11.188Z,23.08
2022-08-22T01:23:10.426Z,23.11
2022-08-22T01:26:08.188Z,22.99
2022-08-22T01:28:54.785Z,23.11
2022-08-22T01:31:49.394Z,23.02
2022-08-22T01:34:37.739Z,23.01
2022-08-22T01:37:35.796Z,22.85
2022-08-22T01:40:54.514Z,22.59
2022-08-22T01:43:51.488Z,22.76
2022-08-22T01:46:44.536Z,22.79
2022-08-22T01:49:27.307Z,22.80
2022-08-22T01:52:01.818Z,22.74
2022-08-22T01:54:45.086Z,22.80
2022-08-22T01:57:12.850Z,22.75
2022-08-22T01:59:44.063Z,22.14
2022-08-22T02:02:48.154Z,22.69
2022-08-22T02:05:46.231Z,22.42
2022-08-22T02:08:21.598Z,22.56
2022-08-22T02:10:57.806Z,22.60
2022-08-22T02:13:33.241Z,22.25
2022-08-22T02:16:12.407Z,22.55
2022-08-22T02:19:05.189Z,22.35
2022-08-22T02:21:50.266Z,22.42
2022-08-22T02:24:47.757Z,22.37
2022-08-22T02:27:17.569Z,22.33
2022-08-22T02:29:52.329Z,22.07
2022-08-22T02:32:24.898Z,22.09
2022-08-22T02:35:14.205Z,22.24
2022-08-22T02:37:55.867Z,21.99
2022-08-22T02:40:31.918Z,22.03
2022-08-22T02:43:27.445Z,22.10
2022-08-22T02:46:11.878Z,22.07
2022-08-22T02:49:15.212Z,22.14
2022-08-22T02:52:03.218Z,22.13
2022-08-22T02:54:42.122Z,22.09
2022-08-22T02:57:27.073Z,22.08
2022-08-22T03:00:30.959Z,21.99
2022-08-22T03:03:21.147Z,22.03
2022-08-22T03:06:00.420Z,22.01
2022-08-22T03:08:47.418Z,21.98
2022-08-22T03:11:31.994Z,21.65
2022-08-22T03:14:20.315Z,21.74
2022-08-22T03:17:01.582Z,21.71
2022-08-22T03:19:43.725Z,21.76
2022-08-22T03:22:32.075Z,21.84
2022-08-22T03:25:13.707Z,21.86
2022-08-22T03:28:02.016Z,21.78
2022-08-22T03:30:35.245Z,21.76
2022-08-22T03:33:13.595Z,21.70
2022-08-22T03:35:45.974Z,21.69
2022-08-22T03:38:33.799Z,21.67
2022-08-22T03:41:17.687Z,21.72
2022-08-22T03:44:01.893Z,21.54
2022-08-22T03:46:50.752Z,21.41
2022-08-22T03:49:59.764Z,21.44
2022-08-22T03:53:19.381Z,21.58
2022-08-22T03:55:51.893Z,21.55
2022-08-22T03:58:36.801Z,21.55
2022-08-22T04:01:42.775Z,21.37
2022-08-22T04:04:38.546Z,21.47
2022-08-22T04:07:31.553Z,21.50
2022-08-22T04:10:20.116Z,21.48
2022-08-22T04:13:12.493Z,21.53
2022-08-22T04:16:19.448Z,21.46
2022-08-22T04:19:16.541Z,21.33
2022-08-22T04:22:06.673Z,21.35
2022-08-22T04:24:54.538Z,21.01
2022-08-22T04:27:27.466Z,21.09
2022-08-22T04:30:25.722Z,21.17
2022-08-22T04:33:22.173Z,21.10
2022-08-22T04:36:08.866Z,21.13
2022-08-22T04:39:05.118Z,20.93
2022-08-22T04:41:41.743Z,21.07
2022-08-22T04:44:14.896Z,20.90
2022-08-22T04:47:02.481Z,21.02
2022-08-22T04:49:59.166Z,21.11
2022-08-22T04:52:42.402Z,20.99
2022-08-22T04:55:29.960Z,21.05
2022-08-22T04:58:34.030Z,20.98
2022-08-22T05:01:06.676Z,20.97
2022-08-22T05:03:44.713Z,20.64
2022-08-22T05:06:14.422Z,19.97
2022-08-22T05:08:45.842Z,21.01
2022-08-22T05:11:19.275Z,20.89
2022-08-22T05:14:01.645Z,20.94
2022-08-22T05:16:32.930Z,20.83
2022-08-22T05:19:11.079Z,21.01
2022-08-22T05:21:42.715Z,21.11
2022-08-22T05:24:22.855Z,21.10
2022-08-22T05:26:57.544Z,20.87
2022-08-22T05:29:30.611Z,20.64
2022-08-22T05:32:07.148Z,20.70
2022-08-22T05:34:39.827Z,20.58
2022-08-22T05:37:14.211Z,20.71
2022-08-22T05:39:46.967Z,21.01
2022-08-22T05:42:22.791Z,21.08
2022-08-22T05:44:49.521Z,20.56
2022-08-22T05:47:33.173Z,20.74
2022-08-22T05:50:14.177Z,21.01
2022-08-22T05:53:06.034Z,20.89
2022-08-22T05:55:56.456Z,21.08
2022-08-22T05:58:50.753Z,21.16
2022-08-22T06:01:19.825Z,21.22
2022-08-22T06:04:11.664Z,21.10
2022-08-22T06:06:46.655Z,20.92
2022-08-22T06:09:35.371Z,21.27
2022-08-22T06:12:16.457Z,21.34
2022-08-22T06:15:13.511Z,21.44
2022-08-22T06:17:51.581Z,21.33
2022-08-22T06:20:32.852Z,21.30
2022-08-22T06:23:02.146Z,21.86
2022-08-22T06:25:33.152Z,22.01
2022-08-22T06:28:05.999Z,22.05
2022-08-22T06:30:34.213Z,22.21
2022-08-22T06:33:06.782Z,22.51
2022-08-22T06:35:57.176Z,22.62
2022-08-22T06:38:47.486Z,22.58
2022-08-22T06:41:14.133Z,22.66
2022-08-22T06:43:43.294Z,22.74
2022-08-22T06:46:13.075Z,22.58
2022-08-22T06:48:41.223Z,23.00
2022-08-22T06:51:08.761Z,22.95
2022-08-22T06:53:48.192Z,22.92
2022-08-22T06:56:21.913Z,22.88
2022-08-22T06:58:52.229Z,23.01
2022-08-22T07:01:25.370Z,23.03
2022-08-22T07:03:59.433Z,23.20
2022-08-22T07:06:41.920Z,23.21
2022-08-22T07:09:31.852Z,23.26
2022-08-22T07:12:03.139Z,23.50
2022-08-22T07:14:38.977Z,23.33
2022-08-22T07:17:08.961Z,23.51
2022-08-22T07:19:39.735Z,23.62
2022-08-22T07:22:22.528Z,23.68
2022-08-22T07:24:54.974Z,23.66
2022-08-22T07:27:26.118Z,23.69
2022-08-22T07:30:12.917Z,23.87
2022-08-22T07:32:43.198Z,23.91
2022-08-22T07:35:26.942Z,23.84
2022-08-22T07:38:13.830Z,24.00
2022-08-22T07:40:58.775Z,23.98
2022-08-22T07:43:52.156Z,23.98
2022-08-22T07:46:33.979Z,24.24
2022-08-22T07:49:17.834Z,24.22
2022-08-22T07:51:49.582Z,24.17
2022-08-22T07:54:47.074Z,24.33
2022-08-22T07:57:13.399Z,24.36
2022-08-22T07:59:47.214Z,24.40
2022-08-22T08:02:15.974Z,24.44
2022-08-22T08:04:43.977Z,24.24
2022-08-22T08:07:14.822Z,24.43
2022-08-22T08:09:46.189Z,24.53
2022-08-22T08:12:15.675Z,24.51
2022-08-22T08:14:45.358Z,24.58
2022-08-22T08:17:19.103Z,24.81
2022-08-22T08:19:47.292Z,24.72
2022-08-22T08:22:23.606Z,24.78
2022-08-22T08:24:51.575Z,25.02
2022-08-22T08:27:41.818Z,25.25
2022-08-22T08:30:15.743Z,25.39
2022-08-22T08:32:47.929Z,25.51
2022-08-22T08:35:28.258Z,25.32
2022-08-22T08:38:18.372Z,25.53
2022-08-22T08:41:13.636Z,25.47
2022-08-22T08:43:57.788Z,25.52
2022-08-22T08:47:05.792Z,25.62
2022-08-22T08:49:53.259Z,25.56
2022-08-22T08:52:52.574Z,25.64
2022-08-22T08:55:44.919Z,25.78
2022-08-22T08:58:48.823Z,25.88
2022-08-22T09:01:43.033Z,25.75
2022-08-22T09:04:40.721Z,25.79
2022-08-22T09:07:13.308Z,25.89
2022-08-22T09:09:46.200Z,25.91
2022-08-22T09:12:56.474Z,25.94
2022-08-22T09:16:10.038Z,25.85
2022-08-22T09:18:48.646Z,26.07
2022-08-22T09:22:00.287Z,26.16
2022-08-22T09:25:00.334Z,26.12
2022-08-22T09:27:45.633Z,26.15
2022-08-22T09:30:27.725Z,26.21
2022-08-22T09:33:01.060Z,26.37
2022-08-22T09:35:33.414Z,26.50
2022-08-22T09:38:23.519Z,26.39
2022-08-22T09:41:00.204Z,26.54
2022-08-22T09:43:45.042Z,26.46
2022-08-22T09:46:18.552Z,26.63
2022-08-22T09:49:09.366Z,26.40
2022-08-22T09:51:52.718Z,26.56
2022-08-22T09:54:43.647Z,26.55
2022-08-22T09:57:19.956Z,26.81
2022-08-22T10:00:17.834Z,26.87
2022-08-22T10:03:15.731Z,26.82
2022-08-22T10:05:47.895Z,27.03
2022-08-22T10:08:46.032Z,27.14
2022-08-22T10:11:18.800Z,27.32
2022-08-22T10:13:57.616Z,27.38
2022-08-22T10:16:58.572Z,27.42
2022-08-22T10:19:49.444Z,27.63
2022-08-22T10:22:30.285Z,27.82
2022-08-22T10:25:28.496Z,27.93
2022-08-22T10:28:14.717Z,27.93
2022-08-22T10:30:56.405Z,28.04
2022-08-22T10:33:32.173Z,28.07
2022-08-22T10:36:11.978Z,28.12
2022-08-22T10:38:53.637Z,28.24
2022-08-22T10:41:32.680Z,28.38
2022-08-22T10:44:21.529Z,28.46
2022-08-22T10:47:05.262Z,28.35
2022-08-22T10:49:45.913Z,28.49
2022-08-22T10:52:39.217Z,28.41
2022-08-22T10:55:24.934Z,28.50
2022-08-22T10:58:10.956Z,28.41
2022-08-22T11:00:50.491Z,28.20
2022-08-22T11:03:38.822Z,28.48
2022-08-22T11:06:21.610Z,28.18
2022-08-22T11:08:59.739Z,28.48
2022-08-22T11:11:54.629Z,28.49
2022-08-22T11:14:36.591Z,28.60
2022-08-22T11:17:31.097Z,28.62
2022-08-22T11:20:09.829Z,28.56
2022-08-22T11:22:55.595Z,28.86
2022-08-22T11:25:44.244Z,28.99
2022-08-22T11:28:13.386Z,29.12
2022-08-22T11:30:57.715Z,28.85
2022-08-22T11:33:53.031Z,29.04
2022-08-22T11:36:46.749Z,29.25
2022-08-22T11:40:05.753Z,29.11
2022-08-22T11:42:47.421Z,29.31
2022-08-22T11:45:31.337Z,29.32
2022-08-22T11:48:02.492Z,29.40
2022-08-22T11:50:39.037Z,29.45
2022-08-22T11:53:41.954Z,29.52
2022-08-22T11:56:22.774Z,29.54
2022-08-22T11:58:59.367Z,29.55
2022-08-22T12:01:43.892Z,29.56
2022-08-22T12:04:25.438Z,29.72
2022-08-22T12:07:00.994Z,29.87
2022-08-22T12:09:40.671Z,29.79
2022-08-22T12:12:34.412Z,30.14
2022-08-22T12:15:01.595Z,30.21
2022-08-22T12:17:55.896Z,30.36
2022-08-22T12:20:40.684Z,30.25
2022-08-22T12:23:43.687Z,30.62
2022-08-22T12:26:25.532Z,30.67
2022-08-22T12:29:15.504Z,30.72
2022-08-22T12:31:58.241Z,30.87
2022-08-22T12:34:33.744Z,30.98
2022-08-22T12:37:30.115Z,31.03
2022-08-22T12:40:15.998Z,31.23
2022-08-22T12:43:12.904Z,31.16
2022-08-22T12:45:51.377Z,31.28
2022-08-22T12:48:45.977Z,31.32
2022-08-22T12:51:38.936Z,31.32
2022-08-22T12:54:36.108Z,31.37
2022-08-22T12:57:26.627Z,31.21
2022-08-22T12:59:59.143Z,31.06
2022-08-22T13:02:34.032Z,31.37
2022-08-22T13:05:22.484Z,31.32
2022-08-22T13:08:05.262Z,31.26
2022-08-22T13:10:38.081Z,31.43
2022-08-22T13:13:12.349Z,31.59
2022-08-22T13:15:53.534Z,31.79
2022-08-22T13:18:30.771Z,31.86
2022-08-22T13:21:02.465Z,31.68
2022-08-22T13:23:39.567Z,31.70
2022-08-22T13:26:24.582Z,32.06
2022-08-22T13:29:24.715Z,32.20
2022-08-22T13:31:55.384Z,32.39
2022-08-22T13:34:50.850Z,32.49
2022-08-22T13:37:24.740Z,32.39
2022-08-22T13:39:58.809Z,32.31
2022-08-22T13:42:29.948Z,32.19
2022-08-22T13:44:59.717Z,32.25
2022-08-22T13:47:31.699Z,32.37
2022-08-22T13:50:13.980Z,32.46
2022-08-22T13:52:54.959Z,32.49
2022-08-22T13:55:29.543Z,32.32
2022-08-22T13:58:30.676Z,32.51
2022-08-22T14:01:28.593Z,32.69
2022-08-22T14:04:31.658Z,32.87
2022-08-22T14:07:02.258Z,32.97
2022-08-22T14:09:51.321Z,33.33
2022-08-22T14:12:28.673Z,33.08
2022-08-22T14:15:03.557Z,33.46
2022-08-22T14:17:42.994Z,33.54
2022-08-22T14:20:32.319Z,33.58
2022-08-22T14:23:07.110Z,33.41
2022-08-22T14:25:36.565Z,33.45
2022-08-22T14:28:09.344Z,33.63
2022-08-22T14:30:51.370Z,33.43
2022-08-22T14:33:31.958Z,33.66
2022-08-22T14:36:03.248Z,33.59
2022-08-22T14:38:32.595Z,33.49
2022-08-22T14:41:05.218Z,33.10
2022-08-22T14:43:31.869Z,33.17
2022-08-22T14:46:06.135Z,32.46
2022-08-22T14:49:03.182Z,32.66
2022-08-22T14:51:29.862Z,32.67
2022-08-22T14:54:14.140Z,32.48
2022-08-22T14:56:49.635Z,32.07
2022-08-22T14:59:35.904Z,32.26
2022-08-22T15:02:09.989Z,32.44
2022-08-22T15:04:46.027Z,33.05
2022-08-22T15:07:23.790Z,33.57
2022-08-22T15:09:55.120Z,33.64
2022-08-22T15:12:35.412Z,33.66
2022-08-22T15:15:41.106Z,33.84
2022-08-22T15:18:33.810Z,33.68
2022-08-22T15:21:12.385Z,33.57
2022-08-22T15:23:45.176Z,33.64
2022-08-22T15:26:25.260Z,33.21
2022-08-22T15:29:02.026Z,33.11
2022-08-22T15:31:31.717Z,32.69
2022-08-22T15:34:08.143Z,32.69
2022-08-22T15:36:36.133Z,32.47
2022-08-22T15:39:27.556Z,32.36
2022-08-22T15:41:55.234Z,32.30
2022-08-22T15:44:30.773Z,32.24
2022-08-22T15:47:11.542Z,32.23
2022-08-22T15:49:53.666Z,32.09
2022-08-22T15:52:27.088Z,31.86
2022-08-22T15:54:53.713Z,32.19
2022-08-22T15:57:32.020Z,32.20
2022-08-22T16:00:04.208Z,32.27
2022-08-22T16:02:56.478Z,32.14
2022-08-22T16:05:37.219Z,32.04
2022-08-22T16:08:10.984Z,32.24
2022-08-22T16:10:53.539Z,32.46
2022-08-22T16:13:26.491Z,32.45
2022-08-22T16:16:19.738Z,32.27
2022-08-22T16:18:49.134Z,32.30
2022-08-22T16:21:22.062Z,32.00
2022-08-22T16:23:53.679Z,32.26
2022-08-22T16:26:36.339Z,31.93
2022-08-22T16:29:17.486Z,32.18
2022-08-22T16:31:44.312Z,32.06
2022-08-22T16:34:45.515Z,31.58
2022-08-22T16:37:25.133Z,31.97
2022-08-22T16:43:52.690Z,31.79
2022-08-22T16:46:54.017Z,31.66
2022-08-22T16:49:32.334Z,31.08
2022-08-22T16:52:27.813Z,31.53
2022-08-22T16:54:59.186Z,31.48
2022-08-22T16:58:05.712Z,31.27
2022-08-22T17:00:44.643Z,31.18
2022-08-22T17:03:32.081Z,31.52
2022-08-22T17:06:01.422Z,31.67
2022-08-22T17:08:45.644Z,31.64
2022-08-22T17:11:30.537Z,31.77
2022-08-22T17:14:21.860Z,31.47
2022-08-22T17:17:12.764Z,31.42
2022-08-22T17:19:57.986Z,31.23
2022-08-22T17:22:31.883Z,31.21
2022-08-22T17:25:14.069Z,31.02
2022-08-22T17:27:44.522Z,30.97
2022-08-22T17:30:29.036Z,31.18
2022-08-22T17:33:04.326Z,31.33
2022-08-22T17:36:06.082Z,31.37
2022-08-22T17:38:41.742Z,31.26
2022-08-22T17:41:38.009Z,31.12
2022-08-22T17:44:13.797Z,31.06
2022-08-22T17:46:40.111Z,31.03
2022-08-22T17:49:20.789Z,31.00
2022-08-22T17:51:58.984Z,30.52
2022-08-22T17:54:29.623Z,30.78
2022-08-22T17:57:05.982Z,30.77
2022-08-22T17:59:51.079Z,30.72
2022-08-22T18:02:31.595Z,30.69
2022-08-22T18:05:39.893Z,30.52
2022-08-22T18:11:26.659Z,30.68
2022-08-22T18:14:09.105Z,30.21
2022-08-22T18:16:41.970Z,30.59
2022-08-22T18:19:25.355Z,30.49
2022-08-22T18:21:59.664Z,30.19
2022-08-22T18:24:44.872Z,30.38
2022-08-22T18:27:35.031Z,30.33
2022-08-22T18:30:24.632Z,30.17
2022-08-22T18:33:14.656Z,30.16
2022-08-22T18:35:54.629Z,30.11
2022-08-22T18:38:26.520Z,30.13
2022-08-22T18:40:58.248Z,30.08
2022-08-22T18:43:44.680Z,29.95
2022-08-22T18:46:38.999Z,30.09
2022-08-22T18:49:46.425Z,30.08
2022-08-22T18:52:20.052Z,29.61
2022-08-22T18:55:15.170Z,29.96
2022-08-22T18:58:03.714Z,29.84
2022-08-22T19:01:32.383Z,29.77
2022-08-22T19:04:41.461Z,29.11
2022-08-22T19:07:31.146Z,29.13
2022-08-22T19:10:18.571Z,28.74
2022-08-22T19:13:03.372Z,28.71
2022-08-22T19:15:54.461Z,29.42
2022-08-22T19:18:40.351Z,29.08
2022-08-22T19:21:40.291Z,28.65
2022-08-22T19:24:25.125Z,28.57
2022-08-22T19:27:15.208Z,28.82
2022-08-22T19:29:41.608Z,29.20
2022-08-22T19:32:13.029Z,28.95
2022-08-22T19:34:47.096Z,28.62
2022-08-22T19:37:32.231Z,29.16
2022-08-22T19:40:11.606Z,28.49
2022-08-22T19:42:41.490Z,28.52
2022-08-22T19:45:28.762Z,28.39
2022-08-22T19:48:09.470Z,27.84
2022-08-22T19:50:39.095Z,28.55
2022-08-22T19:53:24.973Z,28.28
2022-08-22T19:56:03.820Z,28.77
2022-08-22T19:58:54.463Z,28.58
2022-08-22T20:01:33.157Z,28.45
2022-08-22T20:04:36.673Z,28.42
2022-08-22T20:07:15.357Z,27.92
2022-08-22T20:09:54.457Z,28.20
2022-08-22T20:12:43.915Z,28.06
2022-08-22T20:15:17.868Z,27.98
2022-08-22T20:17:44.686Z,28.42
2022-08-22T20:20:35.257Z,28.62
2022-08-22T20:23:26.741Z,28.49
2022-08-22T20:25:55.877Z,28.12
2022-08-22T20:28:32.251Z,27.76
2022-08-22T20:31:02.209Z,27.67
2022-08-22T20:33:34.824Z,27.57
2022-08-22T20:36:06.161Z,28.34
2022-08-22T20:38:56.919Z,27.88
2022-08-22T20:41:26.499Z,28.35
2022-08-22T20:43:57.099Z,27.84
2022-08-22T20:46:43.567Z,27.91
2022-08-22T20:49:18.392Z,27.62
2022-08-22T20:51:54.480Z,27.73
2022-08-22T20:54:24.247Z,28.09
2022-08-22T20:56:57.698Z,28.12
2022-08-22T20:59:35.873Z,28.05
2022-08-22T21:02:15.657Z,27.97
2022-08-22T21:05:00.101Z,27.92
2022-08-22T21:07:31.238Z,27.74
2022-08-22T21:10:27.462Z,27.35
2022-08-22T21:13:33.228Z,27.70
2022-08-22T21:16:11.287Z,27.44
2022-08-22T21:18:41.633Z,27.68
2022-08-22T21:21:18.205Z,27.64
2022-08-22T21:24:06.598Z,27.63
2022-08-22T21:26:33.005Z,27.62
2022-08-22T21:29:05.452Z,27.59
2022-08-22T21:31:42.352Z,27.57
2022-08-22T21:34:20.720Z,26.88
2022-08-22T21:36:50.916Z,27.13
2022-08-22T21:39:21.937Z,27.19
2022-08-22T21:41:52.740Z,27.15
2022-08-22T21:44:28.343Z,27.23
2022-08-22T21:46:55.789Z,27.16
2022-08-22T21:49:31.672Z,26.81
2022-08-22T21:51:58.179Z,27.04
2022-08-22T21:54:24.546Z,27.28
2022-08-22T21:56:53.726Z,27.10
2022-08-22T21:59:26.819Z,26.97
2022-08-22T22:02:31.277Z,26.64
2022-08-22T22:05:02.452Z,27.19
2022-08-22T22:07:29.179Z,26.81
2022-08-22T22:09:56.075Z,26.55
2022-08-22T22:12:23.023Z,26.83
2022-08-22T22:14:49.957Z,27.00
2022-08-22T22:17:18.857Z,26.73
2022-08-22T22:19:45.558Z,26.66
2022-08-22T22:22:12.074Z,26.42
2022-08-22T22:24:38.604Z,26.25
2022-08-22T22:27:05.797Z,26.33
2022-08-22T22:29:33.928Z,26.69
2022-08-22T22:32:00.405Z,26.68
2022-08-22T22:34:26.859Z,26.70
2022-08-22T22:36:54.020Z,26.06
2022-08-22T22:39:20.438Z,26.37
2022-08-22T22:41:46.961Z,26.46
2022-08-22T22:44:13.374Z,26.22
2022-08-22T22:46:39.961Z,25.75
2022-08-22T22:49:06.448Z,26.14
2022-08-22T22:51:33.266Z,26.27
2022-08-22T22:53:59.866Z,26.27
2022-08-22T22:56:27.363Z,26.23
2022-08-22T22:59:00.745Z,26.11
2022-08-22T23:01:58.577Z,26.13
2022-08-22T23:04:25.025Z,25.87
2022-08-22T23:06:51.439Z,25.72
2022-08-22T23:09:17.852Z,25.59
2022-08-22T23:11:44.430Z,25.70
2022-08-22T23:14:10.956Z,26.14
2022-08-22T23:16:39.493Z,25.93
2022-08-22T23:19:10.486Z,25.84
2022-08-22T23:21:37.680Z,25.83
2022-08-22T23:24:04.251Z,26.01
2022-08-22T23:26:30.963Z,26.00
2022-08-22T23:28:58.533Z,25.93
2022-08-22T23:31:37.587Z,25.93
2022-08-22T23:34:12.692Z,25.87
2022-08-22T23:36:41.156Z,25.84
2022-08-22T23:39:09.364Z,25.86
2022-08-22T23:41:36.605Z,25.31
2022-08-22T23:44:05.777Z,25.79
2022-08-22T23:46:32.770Z,25.73
2022-08-22T23:49:02.441Z,25.64
2022-08-22T23:51:29.167Z,25.37
2022-08-22T23:53:57.596Z,25.55
2022-08-22T23:56:29.600Z,25.40
2022-08-22T23:58:57.213Z,24.79
